Time;durP1;ratioP1;P1;durP2;ratioP2;P2;SDS_P1;SDS_P2;PMS_P1;PMS_P2;Temp;Humidity;BMP_temperature;BMP_pressure;BME280_temperature;BME280_humidity;BME280_pressure;Samples;Min_cycle;Max_cycle;Signal;HPM_P1;HPM_P2
2022/06/12 00:00:55;;;;;;;3.97;2.00;;;16.10;1.00;;;;;;5047210;28;20273;-57
2022/06/12 00:03:25;;;;;;;7.27;1.87;;;16.00;1.00;;;;;;5047170;28;20206;-56
2022/06/12 00:05:55;;;;;;;5.67;2.43;;;16.20;1.00;;;;;;5033504;28;20763;-56
2022/06/12 00:08:23;;;;;;;4.83;2.00;;;16.20;1.00;;;;;;5047681;28;20221;-55
2022/06/12 00:10:53;;;;;;;4.60;1.83;;;16.30;1.00;;;;;;5047734;28;20288;-56
2022/06/12 00:13:28;;;;;;;4.10;2.13;;;16.20;1.00;;;;;;5044572;28;20550;-60
2022/06/12 00:15:56;;;;;;;5.60;1.93;;;16.10;1.00;;;;;;5046407;28;20307;-56
2022/06/12 00:18:24;;;;;;;6.17;1.63;;;16.00;1.00;;;;;;5049563;28;20211;-55
2022/06/12 00:21:10;;;;;;;4.47;1.67;;;16.10;1.00;;;;;;5044921;28;20621;-54
2022/06/12 00:23:53;;;;;;;6.43;2.20;;;16.10;99.90;;;;;;5023266;28;20233;-55
2022/06/12 00:26:29;;;;;;;9.27;2.00;;;16.10;1.00;;;;;;5050137;28;20206;-57
2022/06/12 00:28:59;;;;;;;7.70;3.33;;;16.10;1.00;;;;;;5051504;28;20211;-57
2022/06/12 00:31:26;;;;;;;4.90;1.60;;;16.10;1.00;;;;;;5068776;28;20304;-57
2022/06/12 00:33:53;;;;;;;6.37;2.00;;;16.00;1.00;;;;;;5049946;28;20212;-57
2022/06/12 00:36:20;;;;;;;5.83;2.00;;;16.00;1.00;;;;;;5048716;28;20711;-55
2022/06/12 00:38:47;;;;;;;6.30;2.13;;;16.00;1.00;;;;;;5049358;28;20286;-56
2022/06/12 00:41:14;;;;;;;8.90;2.40;;;15.90;1.00;;;;;;5046885;28;20191;-56
2022/06/12 00:43:41;;;;;;;6.17;2.20;;;15.90;1.00;;;;;;5053227;28;20196;-56
2022/06/12 00:46:28;;;;;;;7.77;1.90;;;15.90;1.00;;;;;;5050933;28;20211;-55
2022/06/12 00:48:55;;;;;;;4.63;1.63;;;16.00;1.00;;;;;;5053443;28;20242;-57
2022/06/12 00:51:22;;;;;;;6.40;2.70;;;15.90;1.00;;;;;;5035000;28;20238;-54
2022/06/12 00:53:54;;;;;;;7.40;2.30;;;15.90;1.00;;;;;;5049599;28;20238;-56
2022/06/12 00:56:32;;;;;;;6.80;2.10;;;15.90;1.00;;;;;;5049859;28;20301;-55
2022/06/12 00:59:07;;;;;;;5.83;1.80;;;15.80;1.00;;;;;;5035476;28;20200;-56
2022/06/12 01:01:38;;;;;;;6.57;1.90;;;15.80;1.00;;;;;;5047810;28;20236;-56
2022/06/12 01:06:55;;;;;;;10.23;2.53;;;15.90;1.00;;;;;;5043169;28;20236;-57
2022/06/12 01:09:30;;;;;;;6.20;2.27;;;15.80;1.00;;;;;;5043567;28;20273;-55
2022/06/12 01:12:00;;;;;;;7.57;2.20;;;15.80;1.00;;;;;;5031932;28;20205;-55
2022/06/12 01:14:33;;;;;;;6.73;2.23;;;15.80;1.00;;;;;;5042738;28;20574;-56
2022/06/12 01:17:02;;;;;;;7.43;2.30;;;15.80;1.00;;;;;;5046151;28;20302;-55
2022/06/12 01:19:32;;;;;;;8.00;2.33;;;15.80;1.00;;;;;;5042334;28;21252;-55
2022/06/12 01:22:17;;;;;;;9.97;2.87;;;15.80;1.00;;;;;;5049091;28;20599;-57
2022/06/12 01:24:47;;;;;;;6.13;2.20;;;15.80;1.00;;;;;;5051189;28;20203;-55
2022/06/12 01:27:40;;;;;;;6.00;2.17;;;15.80;1.00;;;;;;5050093;28;20588;-57
2022/06/12 01:30:24;;;;;;;9.00;2.27;;;15.80;1.00;;;;;;5055054;28;20555;-60
2022/06/12 01:32:59;;;;;;;7.33;2.50;;;15.70;1.00;;;;;;5052210;28;20221;-57
2022/06/12 01:35:46;;;;;;;8.40;2.47;;;15.60;1.00;;;;;;5035046;28;20629;-56
2022/06/12 01:38:16;;;;;;;8.23;2.00;;;15.60;1.00;;;;;;5050623;28;20282;-54
2022/06/12 01:41:10;;;;;;;5.27;2.93;;;15.60;1.00;;;;;;5050928;28;20204;-56
2022/06/12 01:43:59;;;;;;;6.10;1.93;;;15.60;1.00;;;;;;5052458;28;20210;-60
2022/06/12 01:46:43;;;;;;;7.00;1.83;;;15.50;1.00;;;;;;5048121;28;20203;-59
2022/06/12 01:49:20;;;;;;;6.10;1.70;;;15.50;1.00;;;;;;5052113;28;20233;-55
2022/06/12 01:52:06;;;;;;;12.67;2.40;;;15.40;15.10;;;;;;5044843;28;20294;-56
2022/06/12 01:54:45;;;;;;;10.37;2.07;;;15.40;1.00;;;;;;5045111;28;20613;-56
2022/06/12 01:57:18;;;;;;;10.20;2.00;;;15.40;31.60;;;;;;5049788;28;20633;-58
2022/06/12 02:00:09;;;;;;;7.47;2.23;;;15.40;93.90;;;;;;5051781;28;20929;-56
2022/06/12 02:02:43;;;;;;;6.13;2.40;;;15.40;46.90;;;;;;5044866;28;20292;-56
2022/06/12 02:05:27;;;;;;;4.97;1.97;;;15.40;56.20;;;;;;5039490;28;20205;-55
2022/06/12 02:08:16;;;;;;;5.33;2.30;;;15.40;18.30;;;;;;5045746;28;20488;-56
2022/06/12 02:10:52;;;;;;;8.63;2.40;;;15.30;99.90;;;;;;5047793;28;20300;-53
2022/06/12 02:13:35;;;;;;;8.10;2.13;;;15.30;98.70;;;;;;5047732;28;20202;-56
2022/06/12 02:16:16;;;;;;;5.83;2.20;;;15.20;99.90;;;;;;5047656;28;20317;-56
2022/06/12 02:18:51;;;;;;;9.70;2.63;;;15.20;99.90;;;;;;5049143;28;20530;-56
2022/06/12 02:21:29;;;;;;;5.40;2.53;;;15.00;99.90;;;;;;5045810;28;20204;-56
2022/06/12 02:24:13;;;;;;;8.07;2.20;;;15.00;99.90;;;;;;5051604;28;20230;-54
2022/06/12 02:26:44;;;;;;;4.70;2.37;;;15.10;96.90;;;;;;5051176;28;20555;-55
2022/06/12 02:29:17;;;;;;;7.73;2.80;;;15.10;99.90;;;;;;5048849;28;20292;-56
2022/06/12 02:31:48;;;;;;;8.33;2.50;;;15.20;99.90;;;;;;5050126;28;20222;-55
2022/06/12 02:34:24;;;;;;;6.10;2.57;;;15.10;1.00;;;;;;5052262;28;20299;-55
2022/06/12 02:36:57;;;;;;;8.47;2.30;;;15.10;1.00;;;;;;5047813;28;20251;-55
2022/06/12 02:39:29;;;;;;;5.33;2.03;;;15.00;1.00;;;;;;5050437;28;20312;-56
2022/06/12 02:42:09;;;;;;;4.87;2.53;;;15.00;1.00;;;;;;5049297;28;20539;-55
2022/06/12 02:44:58;;;;;;;4.90;1.90;;;14.90;1.00;;;;;;5053461;28;20202;-54
2022/06/12 02:47:28;;;;;;;6.10;2.30;;;15.00;1.00;;;;;;5049912;28;20331;-54
2022/06/12 02:49:56;;;;;;;7.03;2.27;;;15.00;1.00;;;;;;5020917;28;20327;-56
2022/06/12 02:52:41;;;;;;;9.90;2.30;;;15.00;1.00;;;;;;5046183;28;20302;-57
2022/06/12 02:55:50;;;;;;;5.77;2.43;;;15.00;1.00;;;;;;5048118;28;20261;-56
2022/06/12 02:58:39;;;;;;;7.00;2.50;;;15.00;1.00;;;;;;5049096;28;20572;-54
2022/06/12 03:01:12;;;;;;;11.20;3.87;;;14.90;1.00;;;;;;5044652;28;20231;-55
2022/06/12 03:03:51;;;;;;;6.60;2.67;;;14.80;1.00;;;;;;5050482;28;20553;-56
2022/06/12 03:06:20;;;;;;;5.73;2.30;;;14.80;1.00;;;;;;5046985;28;20206;-55
2022/06/12 03:08:50;;;;;;;8.67;2.70;;;14.80;1.00;;;;;;5054190;28;20305;-57
2022/06/12 03:11:25;;;;;;;11.57;3.40;;;14.80;1.00;;;;;;5058972;28;20618;-56
2022/06/12 03:13:54;;;;;;;4.63;2.13;;;14.70;1.00;;;;;;5049313;28;20197;-55
2022/06/12 03:16:24;;;;;;;6.97;2.70;;;14.60;1.00;;;;;;5048896;28;20648;-55
2022/06/12 03:18:57;;;;;;;10.00;2.90;;;14.60;25.30;;;;;;5063900;28;20199;-55
2022/06/12 03:22:18;;;;;;;9.00;2.73;;;14.60;80.90;;;;;;5043617;28;20308;-55
2022/06/12 03:25:13;;;;;;;7.43;2.50;;;14.50;18.00;;;;;;4958062;28;20833;-55
2022/06/12 03:28:14;;;;;;;5.23;2.30;;;14.40;41.30;;;;;;5046373;28;20210;-55
2022/06/12 03:30:59;;;;;;;5.67;2.23;;;14.30;80.30;;;;;;5049825;28;20247;-55
2022/06/12 03:34:07;;;;;;;8.00;2.33;;;14.30;99.90;;;;;;5046400;28;20217;-56
2022/06/12 03:37:22;;;;;;;11.03;2.63;;;14.30;92.40;;;;;;4986969;28;20361;-54
2022/06/12 03:40:26;;;;;;;5.83;2.17;;;14.30;70.30;;;;;;5045169;28;20204;-55
2022/06/12 03:43:10;;;;;;;5.13;2.30;;;14.30;78.70;;;;;;5030253;28;20267;-58
2022/06/12 03:46:01;;;;;;;5.30;2.40;;;14.10;99.90;;;;;;5042297;28;20237;-56
2022/06/12 03:48:41;;;;;;;8.80;2.90;;;14.10;99.90;;;;;;5051455;28;20258;-55
2022/06/12 03:52:02;;;;;;;6.77;2.40;;;14.10;99.90;;;;;;5039585;28;20302;-55
2022/06/12 03:54:54;;;;;;;6.17;2.47;;;14.20;99.90;;;;;;4973481;28;20272;-56
2022/06/12 04:00:35;;;;;;;7.60;2.23;;;14.30;99.90;;;;;;4976784;28;20200;-56
2022/06/12 04:03:19;;;;;;;8.67;2.63;;;14.40;92.70;;;;;;4973612;28;20232;-55
2022/06/12 04:05:56;;;;;;;9.77;3.13;;;14.40;99.90;;;;;;4973994;28;20202;-56
2022/06/12 04:08:32;;;;;;;6.33;2.77;;;14.30;99.90;;;;;;4976579;28;20281;-56
2022/06/12 04:11:00;;;;;;;3.17;2.27;;;14.30;99.90;;;;;;4971917;28;20268;-55
2022/06/12 04:13:28;;;;;;;7.97;2.50;;;14.40;98.70;;;;;;4971286;28;20404;-55
2022/06/12 04:16:10;;;;;;;8.07;2.73;;;14.40;5.80;;;;;;4976074;28;21009;-56
2022/06/12 04:18:37;;;;;;;5.40;2.60;;;14.30;54.90;;;;;;4974330;28;20206;-55
2022/06/12 04:21:10;;;;;;;9.50;3.13;;;14.40;99.90;;;;;;4970350;28;20258;-55
2022/06/12 04:23:50;;;;;;;5.03;2.27;;;14.40;99.90;;;;;;4973551;28;20247;-54
2022/06/12 04:26:41;;;;;;;12.37;3.40;;;14.40;99.90;;;;;;4960217;28;20304;-55
2022/06/12 04:29:33;;;;;;;6.53;2.67;;;14.40;24.50;;;;;;5027509;28;20196;-56
2022/06/12 04:32:03;;;;;;;8.17;2.77;;;14.40;28.40;;;;;;5044961;28;20299;-57
2022/06/12 04:34:32;;;;;;;6.00;2.50;;;14.40;2.70;;;;;;5050246;28;20702;-57
2022/06/12 04:37:08;;;;;;;9.40;3.20;;;14.60;1.00;;;;;;5047104;28;20650;-55
2022/06/12 04:39:35;;;;;;;7.13;2.63;;;14.50;1.00;;;;;;5050991;28;20284;-55
2022/06/12 04:42:04;;;;;;;8.33;2.67;;;14.50;52.50;;;;;;5044921;28;20205;-57
2022/06/12 04:44:31;;;;;;;6.07;2.93;;;14.50;23.30;;;;;;5050843;28;20291;-55
2022/06/12 04:47:00;;;;;;;10.83;3.30;;;14.60;23.60;;;;;;5046218;28;20284;-57
2022/06/12 04:49:30;;;;;;;8.27;2.60;;;14.60;1.00;;;;;;5052842;28;20253;-56
2022/06/12 04:52:00;;;;;;;6.73;2.83;;;14.60;1.00;;;;;;5042417;28;20214;-56
2022/06/12 04:54:29;;;;;;;8.17;2.97;;;14.70;1.00;;;;;;5048114;28;20304;-57
2022/06/12 04:56:56;;;;;;;11.57;3.97;;;14.80;1.00;;;;;;5051631;28;20251;-55
2022/06/12 04:59:24;;;;;;;5.17;3.40;;;14.90;1.00;;;;;;5048494;28;20572;-56
2022/06/12 05:01:51;;;;;;;9.23;3.20;;;14.80;1.00;;;;;;5050880;28;20198;-55
2022/06/12 05:04:20;;;;;;;8.60;3.60;;;14.90;1.00;;;;;;5056371;28;20196;-56
2022/06/12 05:06:49;;;;;;;5.40;3.77;;;15.10;1.00;;;;;;5051666;28;20619;-56
2022/06/12 05:09:19;;;;;;;8.33;3.23;;;15.10;1.00;;;;;;5055136;28;20214;-56
2022/06/12 05:11:46;;;;;;;10.67;3.67;;;15.00;1.00;;;;;;5048910;28;20302;-57
2022/06/12 05:14:13;;;;;;;9.83;3.10;;;15.00;1.00;;;;;;5055472;28;20259;-55
2022/06/12 05:16:56;;;;;;;10.57;3.60;;;15.10;1.00;;;;;;5053322;28;20770;-56
2022/06/12 05:19:28;;;;;;;9.83;3.97;;;15.20;1.00;;;;;;5052850;28;20202;-55
2022/06/12 05:21:55;;;;;;;11.23;3.50;;;15.20;1.00;;;;;;5054920;28;20279;-54
2022/06/12 05:24:22;;;;;;;8.63;3.33;;;15.40;1.00;;;;;;5057895;28;20228;-55
2022/06/12 05:26:51;;;;;;;9.37;3.30;;;15.40;1.00;;;;;;5052494;28;20302;-57
2022/06/12 05:29:23;;;;;;;9.83;4.03;;;15.50;1.00;;;;;;5050463;28;20291;-55
2022/06/12 05:31:51;;;;;;;11.47;3.57;;;15.50;1.00;;;;;;5054794;28;20213;-57
2022/06/12 05:34:18;;;;;;;9.40;3.70;;;15.60;1.00;;;;;;5054557;28;20296;-57
2022/06/12 05:36:46;;;;;;;7.13;3.53;;;15.50;1.00;;;;;;5056156;28;20261;-56
2022/06/12 05:39:13;;;;;;;7.17;3.70;;;15.50;1.00;;;;;;5049450;28;20260;-56
2022/06/12 05:41:40;;;;;;;10.70;3.53;;;15.70;1.00;;;;;;5043232;28;20621;-56
2022/06/12 05:44:07;;;;;;;8.30;3.50;;;16.20;1.00;;;;;;5054793;28;20204;-55
2022/06/12 05:46:34;;;;;;;10.70;3.73;;;16.30;1.00;;;;;;5049917;28;20217;-56
2022/06/12 05:49:01;;;;;;;10.67;4.00;;;16.10;1.00;;;;;;5051680;28;20301;-57
2022/06/12 05:51:28;;;;;;;7.87;3.53;;;16.10;1.00;;;;;;5044188;28;20277;-55
2022/06/12 05:53:55;;;;;;;14.63;3.90;;;15.90;1.00;;;;;;5049679;28;20301;-57
2022/06/12 05:56:24;;;;;;;12.80;4.20;;;15.90;1.00;;;;;;5048484;28;20309;-55
2022/06/12 05:58:51;;;;;;;9.70;3.57;;;16.10;1.00;;;;;;5047418;28;20204;-56
2022/06/12 06:01:20;;;;;;;12.40;3.80;;;16.30;1.00;;;;;;5043908;28;20328;-57
2022/06/12 06:03:48;;;;;;;11.20;4.13;;;16.50;1.00;;;;;;5051232;28;20299;-55
2022/06/12 06:06:20;;;;;;;14.47;5.30;;;16.40;1.00;;;;;;5048975;28;20210;-56
2022/06/12 06:08:47;;;;;;;6.93;4.30;;;16.70;1.00;;;;;;5050085;28;20226;-56
2022/06/12 06:11:13;;;;;;;16.83;4.60;;;16.70;1.00;;;;;;5048244;28;20237;-55
2022/06/12 06:13:40;;;;;;;9.27;4.07;;;16.70;2.50;;;;;;5052966;28;20573;-55
2022/06/12 06:16:07;;;;;;;17.07;4.13;;;17.00;1.00;;;;;;5047922;28;20277;-56
2022/06/12 06:18:40;;;;;;;13.97;4.17;;;17.00;1.00;;;;;;5039809;28;20216;-55
2022/06/12 06:21:08;;;;;;;14.53;4.90;;;16.90;1.00;;;;;;5043008;28;20238;-55
2022/06/12 06:23:36;;;;;;;13.03;4.73;;;16.60;3.10;;;;;;5051591;28;20287;-55
2022/06/12 06:26:03;;;;;;;14.83;3.87;;;16.80;1.00;;;;;;5041787;28;20298;-56
2022/06/12 06:28:30;;;;;;;10.27;3.77;;;16.90;1.00;;;;;;5051680;28;20236;-56
2022/06/12 06:30:57;;;;;;;13.60;4.43;;;17.00;1.00;;;;;;5051406;28;20670;-57
2022/06/12 06:33:24;;;;;;;17.23;5.37;;;17.30;1.00;;;;;;5052832;28;20279;-57
2022/06/12 06:35:51;;;;;;;16.27;4.80;;;17.50;1.00;;;;;;5050999;28;20304;-57
2022/06/12 06:38:18;;;;;;;16.90;3.90;;;17.50;1.00;;;;;;5032577;28;20343;-55
2022/06/12 06:40:46;;;;;;;14.93;3.83;;;17.60;1.00;;;;;;5039624;28;20295;-54
2022/06/12 06:43:13;;;;;;;12.37;3.73;;;17.80;11.80;;;;;;5047388;28;20230;-56
2022/06/12 06:48:28;;;;;;;15.00;3.63;;;19.00;1.00;;;;;;5046989;28;20250;-57
2022/06/12 06:50:55;;;;;;;15.80;4.00;;;19.30;99.90;;;;;;5043890;28;20204;-57
2022/06/12 06:53:22;;;;;;;13.83;3.73;;;18.80;1.00;;;;;;5037032;28;20656;-57
2022/06/12 06:55:50;;;;;;;12.70;4.23;;;19.00;1.00;;;;;;5039261;28;20760;-53
2022/06/12 06:58:20;;;;;;;9.80;3.67;;;18.70;1.00;;;;;;5040639;28;20222;-56
2022/06/12 07:00:49;;;;;;;11.07;3.60;;;19.10;1.00;;;;;;5044386;28;20659;-54
2022/06/12 07:03:17;;;;;;;10.20;3.47;;;19.80;1.00;;;;;;5041371;28;20554;-54
2022/06/12 07:05:45;;;;;;;13.30;4.20;;;19.20;1.00;;;;;;5043250;28;20199;-62
2022/06/12 07:08:13;;;;;;;11.10;3.27;;;18.30;1.00;;;;;;5042056;28;20531;-56
2022/06/12 07:10:42;;;;;;;14.53;4.47;;;18.20;1.00;;;;;;5038477;28;20625;-53
2022/06/12 07:13:09;;;;;;;19.07;4.70;;;18.10;1.00;;;;;;5040857;28;20306;-55
2022/06/12 07:15:37;;;;;;;9.40;3.20;;;18.50;1.00;;;;;;5045117;28;20233;-54
2022/06/12 07:18:06;;;;;;;13.13;3.60;;;18.60;1.00;;;;;;5044033;28;20225;-54
2022/06/12 07:20:36;;;;;;;13.57;4.07;;;19.10;99.90;;;;;;5042097;28;20208;-57
2022/06/12 07:23:05;;;;;;;13.80;3.50;;;18.50;1.00;;;;;;5039935;28;20304;-56
2022/06/12 07:25:36;;;;;;;17.00;4.17;;;18.20;1.00;;;;;;5036743;28;20337;-54
2022/06/12 07:28:03;;;;;;;17.70;3.73;;;18.00;1.00;;;;;;5046522;28;20287;-58
2022/06/12 07:30:35;;;;;;;10.63;4.13;;;18.60;1.00;;;;;;5040298;28;20229;-55
2022/06/12 07:33:02;;;;;;;14.87;3.70;;;18.50;1.00;;;;;;5040870;28;20247;-56
2022/06/12 07:35:29;;;;;;;14.00;3.60;;;20.00;99.90;;;;;;5045760;28;20237;-61
2022/06/12 07:37:56;;;;;;;11.67;3.40;;;20.50;1.00;;;;;;5042636;28;20213;-55
2022/06/12 07:40:28;;;;;;;10.37;3.50;;;20.60;1.00;;;;;;5035837;28;20278;-57
2022/06/12 07:42:55;;;;;;;11.50;3.10;;;20.50;1.00;;;;;;5048029;28;20198;-56
2022/06/12 07:45:22;;;;;;;16.20;3.80;;;19.70;1.00;;;;;;5049429;28;20312;-55
2022/06/12 07:47:49;;;;;;;8.03;3.37;;;19.90;1.00;;;;;;5049329;28;20687;-56
2022/06/12 07:50:16;;;;;;;8.00;3.33;;;19.70;1.00;;;;;;5048448;28;20251;-56
2022/06/12 07:52:43;;;;;;;8.37;3.30;;;19.40;1.00;;;;;;5027995;28;20259;-56
2022/06/12 07:55:13;;;;;;;9.27;3.43;;;19.30;1.00;;;;;;5041219;28;20692;-56
2022/06/12 07:57:40;;;;;;;10.13;2.80;;;19.40;1.00;;;;;;5035874;28;20230;-55
2022/06/12 08:00:10;;;;;;;8.43;3.50;;;19.30;1.00;;;;;;5044215;28;20258;-56
2022/06/12 08:02:37;;;;;;;9.70;2.90;;;20.10;1.00;;;;;;5047605;28;20309;-55
2022/06/12 08:05:04;;;;;;;10.27;3.10;;;20.40;1.00;;;;;;5049560;28;20198;-56
2022/06/12 08:07:31;;;;;;;10.90;3.10;;;20.00;1.00;;;;;;5042188;28;20300;-54
2022/06/12 08:09:58;;;;;;;12.97;3.00;;;21.20;1.00;;;;;;5048809;28;20319;-56
2022/06/12 08:12:25;;;;;;;7.67;2.77;;;21.30;1.00;;;;;;5043479;28;20297;-55
2022/06/12 08:14:54;;;;;;;8.00;2.60;;;21.10;1.00;;;;;;5046656;28;20321;-56
2022/06/12 08:17:21;;;;;;;8.63;2.73;;;22.20;99.90;;;;;;5049888;28;20219;-56
2022/06/12 08:22:33;;;;;;;8.87;2.70;;;21.30;1.00;;;;;;5044886;28;20894;-55
2022/06/12 08:25:01;;;;;;;9.50;2.87;;;21.60;1.00;;;;;;5046132;28;20253;-62
2022/06/12 08:27:27;;;;;;;8.07;2.20;;;21.00;13.80;;;;;;5048336;28;20202;-56
2022/06/12 08:29:54;;;;;;;11.20;3.10;;;21.40;1.00;;;;;;5048839;28;20265;-56
2022/06/12 08:32:21;;;;;;;6.07;2.33;;;21.10;99.90;;;;;;5041485;28;20319;-54
2022/06/12 08:34:55;;;;;;;11.73;3.23;;;21.20;1.00;;;;;;5057490;28;20199;-54
2022/06/12 08:37:26;;;;;;;8.60;2.17;;;21.00;1.00;;;;;;5053106;28;20612;-55
2022/06/12 08:39:53;;;;;;;7.37;2.60;;;21.50;81.40;;;;;;5051094;28;20212;-56
2022/06/12 08:42:37;;;;;;;8.77;2.90;;;22.20;1.00;;;;;;5050169;28;20215;-54
2022/06/12 08:45:12;;;;;;;8.20;2.60;;;22.80;1.00;;;;;;5048670;28;20211;-53
2022/06/12 08:47:44;;;;;;;9.23;2.50;;;21.80;99.90;;;;;;5046530;28;20760;-55
2022/06/12 08:50:26;;;;;;;10.80;2.73;;;20.90;1.00;;;;;;5048090;28;20310;-53
2022/06/12 08:52:57;;;;;;;9.00;2.30;;;21.20;1.00;;;;;;5042840;28;20204;-55
2022/06/12 08:55:36;;;;;;;6.97;2.23;;;21.30;1.00;;;;;;5045196;28;20677;-53
2022/06/12 08:58:15;;;;;;;7.30;2.50;;;21.00;1.00;;;;;;5049164;28;20247;-55
2022/06/12 09:00:43;;;;;;;6.87;2.13;;;21.50;1.00;;;;;;5042153;28;20647;-55
2022/06/12 09:03:18;;;;;;;8.17;2.40;;;22.10;99.90;;;;;;5051523;28;20675;-56
2022/06/12 09:06:01;;;;;;;7.40;2.90;;;22.10;1.00;;;;;;5050406;28;20612;-54
2022/06/12 09:08:30;;;;;;;5.50;2.17;;;21.80;1.00;;;;;;5052379;28;20204;-55
2022/06/12 09:11:12;;;;;;;8.97;2.50;;;21.30;99.90;;;;;;5050481;28;20315;-56
2022/06/12 09:13:53;;;;;;;11.53;2.83;;;21.50;99.90;;;;;;5050676;28;20243;-55
2022/06/12 09:16:27;;;;;;;11.73;3.23;;;21.70;4.20;;;;;;5051240;28;20762;-56
2022/06/12 09:18:59;;;;;;;7.53;2.33;;;21.40;1.00;;;;;;5055493;28;20686;-55
2022/06/12 09:21:35;;;;;;;9.17;2.60;;;21.20;99.90;;;;;;5047162;28;20680;-56
2022/06/12 09:24:11;;;;;;;10.13;2.93;;;20.50;1.00;;;;;;5041520;28;20215;-56
2022/06/12 09:27:08;;;;;;;8.27;2.37;;;20.30;99.90;;;;;;5048360;28;20595;-54
2022/06/12 09:29:53;;;;;;;3.70;1.80;;;20.40;1.00;;;;;;5049834;28;20961;-55
2022/06/12 09:32:34;;;;;;;6.87;2.27;;;20.20;1.00;;;;;;5043141;28;20228;-55
2022/06/12 09:35:16;;;;;;;7.63;2.37;;;20.10;1.00;;;;;;5052251;28;20769;-55
2022/06/12 09:38:18;;;;;;;10.27;2.23;;;20.20;1.00;;;;;;5044129;28;20242;-55
2022/06/12 09:40:45;;;;;;;10.43;3.53;;;20.30;99.90;;;;;;5045303;28;20250;-56
2022/06/12 09:44:02;;;;;;;4.67;2.40;;;20.60;1.00;;;;;;5042506;28;20316;-56
2022/06/12 09:46:56;;;;;;;9.77;2.03;;;21.00;1.00;;;;;;4940659;28;20248;-55
2022/06/12 09:49:23;;;;;;;5.03;1.73;;;20.90;1.00;;;;;;5044635;28;20283;-55
2022/06/12 09:52:02;;;;;;;7.20;2.03;;;20.70;1.00;;;;;;5049361;28;20217;-55
2022/06/12 09:54:48;;;;;;;8.90;2.60;;;20.70;99.90;;;;;;5039285;28;20207;-55
2022/06/12 09:57:33;;;;;;;5.97;2.20;;;20.60;1.00;;;;;;5048681;28;20204;-54
2022/06/12 10:00:06;;;;;;;7.83;2.20;;;20.60;1.00;;;;;;5049186;28;20242;-54
2022/06/12 10:02:50;;;;;;;6.90;2.30;;;20.50;1.00;;;;;;5051090;28;20213;-53
2022/06/12 10:05:36;;;;;;;7.23;2.27;;;20.60;1.00;;;;;;5045340;28;20325;-54
2022/06/12 10:08:35;;;;;;;6.90;1.77;;;21.10;1.00;;;;;;5048612;28;20203;-54
2022/06/12 10:11:11;;;;;;;5.37;1.80;;;21.40;1.00;;;;;;5025578;28;20285;-54
2022/06/12 10:14:06;;;;;;;9.30;3.27;;;21.40;1.00;;;;;;5034894;28;20195;-56
2022/06/12 10:16:57;;;;;;;11.27;3.13;;;21.00;1.00;;;;;;5050971;28;20294;-56
2022/06/12 10:19:46;;;;;;;6.23;2.07;;;20.90;51.30;;;;;;5055157;28;20218;-54
2022/06/12 10:22:27;;;;;;;8.00;2.40;;;20.60;1.00;;;;;;5039326;28;20203;-57
2022/06/12 10:24:55;;;;;;;8.70;2.07;;;20.20;1.00;;;;;;5037120;28;20206;-55
2022/06/12 10:27:23;;;;;;;7.43;2.17;;;20.10;99.90;;;;;;5050181;28;20306;-55
2022/06/12 10:29:54;;;;;;;8.07;2.43;;;20.40;99.90;;;;;;5051663;28;20279;-56
2022/06/12 10:32:26;;;;;;;7.20;2.33;;;21.10;1.00;;;;;;5047647;28;20241;-55
2022/06/12 10:35:16;;;;;;;9.67;2.23;;;21.00;99.90;;;;;;5044221;28;20231;-56
2022/06/12 10:37:43;;;;;;;7.07;2.07;;;20.90;1.00;;;;;;5047955;28;20227;-54
2022/06/12 10:40:22;;;;;;;8.43;2.00;;;20.50;1.00;;;;;;5046704;28;20234;-54
2022/06/12 10:43:00;;;;;;;7.83;1.97;;;20.40;1.00;;;;;;5050815;28;20311;-55
2022/06/12 10:45:33;;;;;;;5.43;1.87;;;20.30;1.00;;;;;;5045419;28;20290;-55
2022/06/12 10:48:18;;;;;;;7.67;2.23;;;20.70;1.00;;;;;;5049804;28;20678;-55
2022/06/12 10:51:08;;;;;;;8.40;2.43;;;21.10;1.00;;;;;;5050535;28;20204;-54
2022/06/12 10:53:35;;;;;;;4.90;2.17;;;21.30;99.90;;;;;;5004390;28;20315;-54
2022/06/12 10:56:24;;;;;;;8.43;2.43;;;21.70;1.00;;;;;;5042844;28;20203;-54
2022/06/12 10:59:12;;;;;;;6.70;2.27;;;22.00;1.00;;;;;;5047878;28;20211;-55
2022/06/12 11:01:45;;;;;;;6.33;2.00;;;22.00;1.00;;;;;;5048869;28;20241;-56
2022/06/12 11:04:47;;;;;;;4.37;1.90;;;22.20;99.90;;;;;;5047660;28;20859;-55
2022/06/12 11:07:30;;;;;;;6.90;2.03;;;22.10;1.00;;;;;;5045456;28;20214;-55
2022/06/12 11:10:19;;;;;;;4.20;1.83;;;21.40;1.00;;;;;;5050314;28;20623;-55
2022/06/12 11:12:59;;;;;;;6.70;2.20;;;21.60;99.90;;;;;;5044194;28;20297;-56
2022/06/12 11:16:19;;;;;;;6.27;1.90;;;22.60;1.00;;;;;;5036030;28;20674;-55
2022/06/12 11:19:05;;;;;;;8.20;1.67;;;22.90;1.00;;;;;;5015982;28;20264;-55
2022/06/12 11:21:55;;;;;;;6.53;1.80;;;22.90;1.00;;;;;;5044201;28;20200;-55
2022/06/12 11:24:26;;;;;;;7.60;2.70;;;22.70;1.00;;;;;;5047726;28;20672;-54
2022/06/12 11:27:05;;;;;;;4.13;1.80;;;23.00;1.00;;;;;;5065799;28;20703;-55
2022/06/12 11:29:54;;;;;;;4.53;1.50;;;23.40;99.90;;;;;;5053257;28;20287;-56
2022/06/12 11:32:58;;;;;;;3.67;1.67;;;23.80;99.90;;;;;;5050023;28;20211;-55
2022/06/12 11:35:43;;;;;;;7.30;2.17;;;24.10;99.90;;;;;;5013500;28;20203;-56
2022/06/12 11:38:19;;;;;;;6.23;1.73;;;23.10;99.90;;;;;;5051811;28;20243;-56
2022/06/12 11:41:07;;;;;;;4.83;1.90;;;22.70;1.00;;;;;;5042815;28;20900;-55
2022/06/12 11:43:39;;;;;;;7.50;1.70;;;23.40;99.90;;;;;;5043893;28;20665;-56
2022/06/12 11:46:23;;;;;;;4.63;2.13;;;23.90;99.90;;;;;;5061888;28;20250;-54
2022/06/12 11:49:19;;;;;;;5.73;1.93;;;23.60;99.90;;;;;;5044541;28;20697;-54
2022/06/12 11:52:07;;;;;;;6.00;1.73;;;23.60;99.90;;;;;;5032995;28;20207;-63
2022/06/12 11:54:37;;;;;;;3.33;1.60;;;23.60;99.90;;;;;;5032812;28;20258;-58
2022/06/12 11:57:12;;;;;;;4.13;1.43;;;23.00;99.90;;;;;;5047547;28;20229;-55
2022/06/12 12:00:04;;;;;;;6.90;1.90;;;22.60;99.90;;;;;;5048760;28;20215;-57
2022/06/12 12:02:47;;;;;;;8.07;1.80;;;22.90;99.90;;;;;;5040672;28;20644;-55
2022/06/12 12:05:20;;;;;;;4.17;1.60;;;23.30;99.90;;;;;;5051873;28;20285;-56
2022/06/12 12:08:05;;;;;;;5.60;1.70;;;23.90;99.90;;;;;;5047690;28;20354;-56
2022/06/12 12:10:41;;;;;;;4.20;1.87;;;23.20;99.90;;;;;;5042350;28;20300;-55
2022/06/12 12:13:20;;;;;;;3.57;1.57;;;23.00;99.90;;;;;;5047591;28;20305;-55
2022/06/12 12:15:49;;;;;;;2.50;1.60;;;23.00;99.90;;;;;;5047785;28;20208;-55
2022/06/12 12:18:44;;;;;;;4.70;1.50;;;23.10;99.90;;;;;;5060680;28;20241;-55
2022/06/12 12:21:16;;;;;;;7.03;2.10;;;23.10;99.90;;;;;;5036870;28;20307;-55
2022/06/12 12:23:46;;;;;;;5.43;1.60;;;23.20;1.00;;;;;;5051078;28;20251;-55
2022/06/12 12:26:33;;;;;;;5.97;1.97;;;23.80;99.90;;;;;;5041126;28;20201;-56
2022/06/12 12:29:05;;;;;;;5.87;1.50;;;24.70;99.90;;;;;;5046858;28;20700;-56
2022/06/12 12:31:33;;;;;;;5.00;1.50;;;24.30;99.90;;;;;;5051013;28;20219;-55
2022/06/12 12:34:02;;;;;;;4.23;1.60;;;23.70;1.00;;;;;;5051015;28;20217;-54
2022/06/12 12:42:23;;;;;;;5.60;1.63;;;22.70;99.90;;;;;;5045178;28;20203;-56
2022/06/12 12:44:51;;;;;;;5.00;1.70;;;22.20;1.00;;;;;;5046999;28;20198;-55
2022/06/12 12:47:24;;;;;;;4.23;1.80;;;22.90;1.00;;;;;;5047596;28;20755;-56
2022/06/12 12:50:20;;;;;;;4.00;1.67;;;23.40;99.90;;;;;;5042530;28;20619;-54
2022/06/12 12:52:55;;;;;;;4.37;2.00;;;23.50;99.90;;;;;;5024385;28;20242;-55
2022/06/12 12:55:24;;;;;;;5.20;2.00;;;23.30;99.90;;;;;;5044138;28;20662;-56
2022/06/12 12:57:54;;;;;;;5.53;1.70;;;23.70;1.00;;;;;;5046874;28;20289;-56
2022/06/12 13:00:33;;;;;;;3.53;1.60;;;23.90;99.90;;;;;;5042751;28;20219;-54
2022/06/12 13:03:32;;;;;;;3.77;1.80;;;23.90;99.90;;;;;;5032323;28;20216;-56
2022/06/12 13:06:16;;;;;;;7.27;1.70;;;23.20;99.90;;;;;;5039413;28;20240;-56
2022/06/12 13:09:40;;;;;;;5.55;1.52;;;23.40;99.90;;;;;;5040920;28;20521;-55
2022/06/12 13:12:34;;;;;;;5.83;1.30;;;23.20;99.90;;;;;;5002379;28;20589;-56
2022/06/12 13:15:19;;;;;;;5.20;1.37;;;22.70;1.00;;;;;;5034901;28;20632;-55
2022/06/12 13:17:49;;;;;;;4.33;1.37;;;22.80;99.90;;;;;;5047457;28;20216;-55
2022/06/12 13:20:50;;;;;;;3.90;1.20;;;22.50;99.90;;;;;;5046417;28;20286;-56
2022/06/12 13:23:34;;;;;;;3.97;1.27;;;22.40;99.90;;;;;;5060510;28;20670;-56
2022/06/12 13:26:08;;;;;;;4.60;1.40;;;22.60;99.90;;;;;;5046177;28;20797;-55
2022/06/12 13:28:37;;;;;;;2.37;1.03;;;22.70;99.90;;;;;;5049981;28;20565;-56
2022/06/12 13:31:04;;;;;;;5.53;1.80;;;22.50;99.90;;;;;;5047560;28;20278;-55
2022/06/12 13:33:34;;;;;;;4.03;1.20;;;22.30;99.90;;;;;;5046488;28;20201;-55
2022/06/12 13:36:09;;;;;;;3.63;1.20;;;22.20;99.90;;;;;;5044904;28;20212;-55
2022/06/12 13:38:48;;;;;;;4.07;1.10;;;22.50;99.90;;;;;;5048993;28;20251;-56
2022/06/12 13:41:38;;;;;;;5.03;1.47;;;22.40;99.90;;;;;;5044467;28;20303;-55
2022/06/12 13:44:27;;;;;;;3.97;1.00;;;22.60;99.90;;;;;;5046906;28;20250;-54
2022/06/12 13:46:56;;;;;;;3.70;1.30;;;22.40;1.00;;;;;;5048841;28;20239;-56
2022/06/12 13:49:40;;;;;;;2.00;1.00;;;22.40;1.00;;;;;;5049763;28;20242;-55
2022/06/12 13:52:32;;;;;;;7.03;1.60;;;22.50;99.90;;;;;;5047196;28;20666;-55
2022/06/12 13:54:59;;;;;;;2.80;1.20;;;22.60;99.90;;;;;;5031191;28;20295;-56